Time;durP1;ratioP1;P1;durP2;ratioP2;P2;SDS_P1;SDS_P2;PMS_P1;PMS_P2;Temp;Humidity;BMP_temperature;BMP_pressure;BME280_temperature;BME280_humidity;BME280_pressure;Samples;Min_cycle;Max_cycle;Signal;HPM_P1;HPM_P2
2022/08/02 00:00:37;;;;;;;4.65;2.92;;;21.40;94.10;;;;;;4838694;29;20099;-82
2022/08/02 00:03:05;;;;;;;4.05;3.13;;;21.30;94.20;;;;;;4872209;29;20046;-82
2022/08/02 00:05:32;;;;;;;6.63;3.30;;;21.30;94.60;;;;;;4836057;29;20147;-81
2022/08/02 00:07:59;;;;;;;6.00;3.30;;;21.30;94.80;;;;;;4872758;29;20053;-82
2022/08/02 00:10:27;;;;;;;5.18;3.40;;;21.20;95.30;;;;;;4837841;29;20049;-82
2022/08/02 00:12:56;;;;;;;5.38;3.20;;;21.20;95.60;;;;;;4833134;29;20049;-82
2022/08/02 00:15:24;;;;;;;3.47;3.15;;;21.10;94.90;;;;;;4831962;29;20058;-82
2022/08/02 00:17:51;;;;;;;5.85;3.47;;;21.10;94.90;;;;;;4857302;29;20049;-82
2022/08/02 00:20:19;;;;;;;4.40;3.17;;;21.10;94.90;;;;;;4857783;29;20086;-83
2022/08/02 00:22:46;;;;;;;8.98;3.78;;;21.00;95.10;;;;;;4857568;29;20110;-83
2022/08/02 00:25:14;;;;;;;3.63;3.30;;;21.00;95.60;;;;;;4857553;29;20130;-83
2022/08/02 00:27:41;;;;;;;5.80;3.47;;;21.00;95.30;;;;;;4858012;29;20053;-86
2022/08/02 00:30:10;;;;;;;4.25;3.47;;;21.00;95.30;;;;;;4862054;29;20063;-83
2022/08/02 00:32:37;;;;;;;5.75;3.65;;;20.90;95.80;;;;;;4857481;29;20145;-83
2022/08/02 00:35:05;;;;;;;5.68;3.80;;;21.00;95.50;;;;;;4842043;29;20094;-83
2022/08/02 00:37:37;;;;;;;6.35;3.38;;;21.00;95.80;;;;;;4846050;29;20606;-83
2022/08/02 00:40:05;;;;;;;4.25;3.25;;;21.00;95.40;;;;;;4861128;29;20053;-83
2022/08/02 00:42:32;;;;;;;5.25;3.38;;;21.00;96.00;;;;;;4845894;29;20101;-83
2022/08/02 00:44:59;;;;;;;5.88;3.30;;;20.90;96.10;;;;;;4876210;29;20045;-83
2022/08/02 00:47:27;;;;;;;4.70;3.47;;;20.90;96.10;;;;;;4877838;29;20057;-83
2022/08/02 00:49:54;;;;;;;6.03;3.47;;;20.90;95.50;;;;;;4859609;29;20092;-83
2022/08/02 00:52:22;;;;;;;5.25;3.58;;;20.90;95.60;;;;;;4857351;29;20781;-83
2022/08/02 00:54:50;;;;;;;6.28;3.75;;;20.80;95.60;;;;;;4851811;29;20058;-83
2022/08/02 00:57:17;;;;;;;4.35;3.53;;;20.80;95.80;;;;;;4855034;29;20058;-83
2022/08/02 00:59:44;;;;;;;4.75;3.80;;;20.80;96.20;;;;;;4860688;29;20439;-83
2022/08/02 01:02:12;;;;;;;4.22;3.33;;;20.80;96.70;;;;;;4840608;29;20060;-82
2022/08/02 01:04:40;;;;;;;4.75;3.33;;;20.70;97.30;;;;;;4853216;29;20054;-82
2022/08/02 01:07:07;;;;;;;4.78;3.20;;;20.70;97.20;;;;;;4855527;29;20058;-82
2022/08/02 01:09:41;;;;;;;4.43;3.55;;;20.70;97.10;;;;;;4832563;29;20050;-83
2022/08/02 01:12:09;;;;;;;5.53;3.72;;;20.70;97.30;;;;;;4845138;29;20125;-82
2022/08/02 01:14:40;;;;;;;5.18;3.97;;;20.70;97.70;;;;;;4857377;29;20068;-82
2022/08/02 01:17:26;;;;;;;5.25;3.88;;;20.70;97.50;;;;;;4840400;29;20053;-83
2022/08/02 01:20:22;;;;;;;5.05;3.40;;;20.70;97.60;;;;;;4859988;29;20416;-83
2022/08/02 01:23:08;;;;;;;8.07;3.78;;;20.60;98.10;;;;;;4840563;29;20424;-83
2022/08/02 01:25:42;;;;;;;4.78;3.60;;;20.50;98.00;;;;;;4859270;29;20052;-82
2022/08/02 01:28:47;;;;;;;5.30;3.70;;;20.60;98.30;;;;;;4848255;29;20050;-83
2022/08/02 01:31:26;;;;;;;6.70;3.83;;;20.50;98.40;;;;;;4832542;29;20046;-83
2022/08/02 01:33:53;;;;;;;6.88;3.90;;;20.50;98.70;;;;;;4844236;29;20053;-83
2022/08/02 01:36:22;;;;;;;6.40;3.72;;;20.50;99.00;;;;;;4860011;29;20049;-83
2022/08/02 01:38:53;;;;;;;5.57;3.83;;;20.50;99.20;;;;;;4840711;29;20042;-82
2022/08/02 01:41:24;;;;;;;5.22;3.67;;;20.50;99.10;;;;;;4842660;29;20073;-83
2022/08/02 01:43:58;;;;;;;5.13;3.85;;;20.40;99.00;;;;;;4858800;29;20489;-82
2022/08/02 01:46:27;;;;;;;7.95;3.95;;;20.40;99.30;;;;;;4844167;29;20054;-83
2022/08/02 01:48:57;;;;;;;7.38;4.00;;;20.30;99.70;;;;;;4831524;29;20049;-83
2022/08/02 01:54:25;;;;;;;5.60;4.13;;;20.30;99.90;;;;;;4864089;29;20042;-83
2022/08/02 01:56:55;;;;;;;5.47;4.00;;;20.30;99.90;;;;;;4859729;29;20501;-83
2022/08/02 01:59:24;;;;;;;5.93;3.85;;;20.20;99.90;;;;;;4873460;29;20113;-83
2022/08/02 02:01:54;;;;;;;4.45;3.67;;;20.30;99.90;;;;;;4844597;29;20049;-83
2022/08/02 02:04:25;;;;;;;7.97;4.10;;;20.30;99.90;;;;;;4839806;29;20144;-83
2022/08/02 02:06:54;;;;;;;6.63;4.00;;;20.20;99.90;;;;;;4849494;29;20102;-83
2022/08/02 02:09:28;;;;;;;7.25;4.38;;;20.20;99.90;;;;;;4834397;29;20054;-83
2022/08/02 02:11:58;;;;;;;4.32;3.58;;;20.10;99.90;;;;;;4851852;29;20054;-82
2022/08/02 02:14:42;;;;;;;4.65;4.10;;;20.10;99.90;;;;;;4851459;29;20046;-83
2022/08/02 02:17:21;;;;;;;4.70;3.65;;;20.10;99.90;;;;;;4833379;29;20053;-83
2022/08/02 02:20:13;;;;;;;5.43;3.80;;;20.10;99.90;;;;;;4845828;29;20042;-83
2022/08/02 02:22:41;;;;;;;5.55;3.83;;;20.10;99.90;;;;;;4850248;29;20054;-83
2022/08/02 02:25:11;;;;;;;9.02;4.10;;;20.10;99.90;;;;;;4837024;29;20054;-83
2022/08/02 02:28:05;;;;;;;7.10;3.95;;;20.00;99.90;;;;;;4851476;29;20046;-83
2022/08/02 02:30:34;;;;;;;4.90;3.63;;;20.00;99.90;;;;;;4838150;29;20054;-82
2022/08/02 02:33:04;;;;;;;7.18;4.47;;;20.00;99.90;;;;;;4853294;29;20335;-82
2022/08/02 02:35:36;;;;;;;4.18;3.75;;;20.00;99.90;;;;;;4848999;29;20064;-83
2022/08/02 02:38:08;;;;;;;5.15;3.53;;;19.90;99.90;;;;;;4836844;29;20569;-83
2022/08/02 02:40:37;;;;;;;6.95;3.80;;;19.90;99.90;;;;;;4844774;29;20060;-82
2022/08/02 02:43:07;;;;;;;6.45;4.20;;;19.80;99.90;;;;;;4830309;29;20383;-83
2022/08/02 02:45:36;;;;;;;5.13;3.60;;;19.80;99.90;;;;;;4848715;29;20038;-83
2022/08/02 02:48:05;;;;;;;5.28;3.95;;;19.80;99.90;;;;;;4836548;29;20555;-83
2022/08/02 02:50:35;;;;;;;4.57;3.70;;;19.90;99.90;;;;;;4851465;29;20545;-83
2022/08/02 02:53:05;;;;;;;6.35;3.50;;;19.80;99.90;;;;;;4830984;29;20137;-83
2022/08/02 02:55:33;;;;;;;3.88;3.28;;;19.80;99.90;;;;;;4830661;29;20064;-83
2022/08/02 02:58:01;;;;;;;5.65;4.18;;;19.90;99.90;;;;;;4844617;29;20050;-83
2022/08/02 03:03:16;;;;;;;6.03;3.35;;;19.80;99.30;;;;;;4851970;29;20052;-85
2022/08/02 03:05:48;;;;;;;5.93;3.78;;;19.70;99.60;;;;;;4870839;29;20068;-86
2022/08/02 03:08:16;;;;;;;4.32;3.35;;;19.70;99.70;;;;;;4846926;29;20044;-84
2022/08/02 03:10:45;;;;;;;6.25;3.70;;;19.70;99.40;;;;;;4862636;29;20156;-86
2022/08/02 03:13:14;;;;;;;5.60;3.63;;;19.80;98.90;;;;;;4844437;29;20045;-86
2022/08/02 03:15:42;;;;;;;4.82;3.63;;;19.70;99.00;;;;;;4874766;29;20081;-88
2022/08/02 03:18:09;;;;;;;4.60;3.33;;;19.50;99.40;;;;;;4862161;29;20044;-84
2022/08/02 03:20:36;;;;;;;6.38;3.50;;;19.50;99.70;;;;;;4844643;29;20053;-85
2022/08/02 03:23:04;;;;;;;5.53;3.50;;;19.70;99.10;;;;;;4838621;29;20044;-84
2022/08/02 03:25:33;;;;;;;5.60;3.60;;;19.70;98.60;;;;;;4874580;29;20158;-85
2022/08/02 03:28:00;;;;;;;5.40;3.63;;;19.80;98.30;;;;;;4861923;29;20047;-86
2022/08/02 03:30:27;;;;;;;6.47;3.28;;;19.80;98.20;;;;;;4861565;29;20109;-83
2022/08/02 03:32:54;;;;;;;3.45;2.72;;;19.70;98.20;;;;;;4838502;29;20065;-85
2022/08/02 03:35:22;;;;;;;4.78;3.10;;;19.80;98.50;;;;;;4876757;29;20108;-84
2022/08/02 03:37:54;;;;;;;4.07;2.95;;;19.90;98.60;;;;;;4861735;29;20502;-83
2022/08/02 03:40:24;;;;;;;6.38;3.70;;;19.90;98.50;;;;;;4859880;29;20053;-85
2022/08/02 03:42:52;;;;;;;5.20;3.22;;;19.90;98.80;;;;;;4861569;29;20049;-84
2022/08/02 03:45:20;;;;;;;6.68;3.20;;;19.90;99.30;;;;;;4844020;29;20416;-83
2022/08/02 03:47:48;;;;;;;4.90;3.03;;;19.90;99.40;;;;;;4874813;29;20045;-83
2022/08/02 03:50:15;;;;;;;4.80;3.28;;;19.90;99.00;;;;;;4852570;29;20045;-83
2022/08/02 03:52:46;;;;;;;4.40;3.33;;;19.90;99.20;;;;;;4861160;29;20116;-83
2022/08/02 03:55:14;;;;;;;6.47;3.80;;;19.80;99.20;;;;;;4864312;29;20060;-83
2022/08/02 03:57:42;;;;;;;3.92;3.13;;;19.80;99.10;;;;;;4860597;29;20041;-84
2022/08/02 04:00:14;;;;;;;5.88;3.85;;;19.80;99.60;;;;;;4861129;29;20550;-84
2022/08/02 04:02:41;;;;;;;6.53;4.25;;;19.80;99.10;;;;;;4876073;29;20152;-83
2022/08/02 04:05:08;;;;;;;7.45;4.15;;;19.80;98.80;;;;;;4835277;29;20053;-84
2022/08/02 04:07:36;;;;;;;4.85;3.97;;;19.70;98.90;;;;;;4857147;29;20049;-84
2022/08/02 04:10:23;;;;;;;7.68;4.22;;;19.80;99.00;;;;;;4861456;29;20473;-83
2022/08/02 04:12:51;;;;;;;8.73;3.60;;;19.80;98.90;;;;;;4841680;29;20052;-84
2022/08/02 04:15:19;;;;;;;6.03;3.78;;;19.90;99.20;;;;;;4861366;29;20045;-84
2022/08/02 04:17:59;;;;;;;6.78;3.75;;;19.90;99.30;;;;;;4854667;29;20244;-84
2022/08/02 04:20:30;;;;;;;6.80;4.03;;;19.90;99.40;;;;;;4875932;29;20492;-83
2022/08/02 04:23:03;;;;;;;8.98;4.25;;;19.90;99.20;;;;;;4839979;29;20057;-83
2022/08/02 04:25:32;;;;;;;5.18;3.35;;;20.00;99.50;;;;;;4844574;29;20068;-84
2022/08/02 04:28:07;;;;;;;5.82;4.20;;;20.00;98.80;;;;;;4845633;29;20132;-83
2022/08/02 04:30:46;;;;;;;7.97;4.35;;;20.00;99.10;;;;;;4859150;29;20045;-84
2022/08/02 04:33:14;;;;;;;5.65;4.65;;;20.00;98.90;;;;;;4851087;29;20088;-84
2022/08/02 04:35:42;;;;;;;8.75;4.55;;;20.00;99.20;;;;;;4855511;29;20101;-83
2022/08/02 04:38:13;;;;;;;6.53;4.65;;;20.00;98.70;;;;;;4858916;29;20145;-82
2022/08/02 04:40:53;;;;;;;8.32;4.35;;;20.10;99.00;;;;;;4858049;29;20056;-83
2022/08/02 04:43:21;;;;;;;7.00;3.92;;;20.10;99.50;;;;;;4836235;29;20140;-83
2022/08/02 04:45:53;;;;;;;6.75;4.70;;;20.10;99.10;;;;;;4860396;29;20048;-83
2022/08/02 04:48:22;;;;;;;5.60;4.00;;;20.20;98.30;;;;;;4860278;29;20540;-83
2022/08/02 04:50:49;;;;;;;7.47;4.32;;;20.20;98.80;;;;;;4845420;29;20053;-83
2022/08/02 04:53:17;;;;;;;6.05;4.47;;;20.30;98.70;;;;;;4850035;29;20077;-83
2022/08/02 04:55:45;;;;;;;6.20;4.40;;;20.30;98.20;;;;;;4860527;29;20443;-83
2022/08/02 04:58:13;;;;;;;7.22;4.10;;;20.30;97.80;;;;;;4859262;29;20054;-83
2022/08/02 05:01:00;;;;;;;6.63;4.22;;;20.40;98.40;;;;;;4841296;29;20041;-84
2022/08/02 05:03:28;;;;;;;6.82;4.25;;;20.40;97.30;;;;;;4862830;29;20412;-83
2022/08/02 05:05:55;;;;;;;7.53;4.20;;;20.50;97.00;;;;;;4860463;29;20052;-86
2022/08/02 05:08:23;;;;;;;4.90;3.70;;;20.50;96.60;;;;;;4845214;29;20053;-87
2022/08/02 05:10:50;;;;;;;5.45;3.80;;;20.60;96.60;;;;;;4843001;29;20049;-84
2022/08/02 05:13:17;;;;;;;5.20;3.55;;;20.60;96.30;;;;;;4861070;29;20053;-84
2022/08/02 05:15:49;;;;;;;4.70;3.80;;;20.60;96.20;;;;;;4857902;29;20237;-83
2022/08/02 05:18:17;;;;;;;7.50;3.83;;;20.80;95.80;;;;;;4864061;29;20053;-84
2022/08/02 05:20:44;;;;;;;8.02;4.13;;;20.90;95.40;;;;;;4857969;29;20129;-83
2022/08/02 05:23:12;;;;;;;5.57;3.60;;;21.00;94.30;;;;;;4841347;29;20059;-83
2022/08/02 05:25:39;;;;;;;5.25;3.95;;;21.10;94.00;;;;;;4848974;29;20064;-83
2022/08/02 05:28:06;;;;;;;5.75;3.60;;;21.10;93.70;;;;;;4844767;29;20340;-83
2022/08/02 05:30:38;;;;;;;5.07;3.70;;;21.20;93.60;;;;;;4863739;29;20049;-86
2022/08/02 05:33:06;;;;;;;4.25;3.85;;;21.10;92.50;;;;;;4842018;29;20041;-84
2022/08/02 05:35:34;;;;;;;4.72;3.40;;;21.20;93.10;;;;;;4862837;29;20572;-83
2022/08/02 05:38:01;;;;;;;5.28;3.60;;;21.40;92.50;;;;;;4863903;29;20053;-83
2022/08/02 05:40:29;;;;;;;4.93;3.80;;;21.60;92.90;;;;;;4857864;29;20088;-84
2022/08/02 05:42:57;;;;;;;5.32;4.10;;;21.70;91.40;;;;;;4852862;29;20100;-84
2022/08/02 05:45:24;;;;;;;7.13;4.13;;;21.80;90.80;;;;;;4854440;29;20097;-82
2022/08/02 05:47:52;;;;;;;7.13;4.25;;;21.90;91.20;;;;;;4858922;29;20053;-84
2022/08/02 05:50:20;;;;;;;8.68;4.75;;;22.10;91.00;;;;;;4841139;29;20526;-85
2022/08/02 05:53:04;;;;;;;9.65;5.38;;;22.10;90.30;;;;;;4857650;29;20171;-82
2022/08/02 05:55:43;;;;;;;11.40;5.63;;;22.10;89.50;;;;;;4847357;29;20056;-83
2022/08/02 05:58:19;;;;;;;9.43;5.30;;;22.30;90.10;;;;;;4862159;29;20596;-83
2022/08/02 06:00:49;;;;;;;9.85;5.18;;;22.40;90.20;;;;;;4836391;29;20049;-83
2022/08/02 06:03:19;;;;;;;9.10;4.15;;;22.50;89.70;;;;;;4855936;29;20053;-83
2022/08/02 06:05:53;;;;;;;9.07;4.50;;;22.70;89.20;;;;;;4847393;29;20061;-83
2022/08/02 06:08:24;;;;;;;7.88;4.78;;;22.80;89.60;;;;;;4824217;29;20067;-82
2022/08/02 06:10:57;;;;;;;6.33;3.57;;;22.90;87.90;;;;;;4859474;29;20424;-83
2022/08/02 06:13:25;;;;;;;8.25;3.63;;;23.00;87.10;;;;;;4835483;29;20051;-84
2022/08/02 06:15:58;;;;;;;3.53;2.70;;;23.10;86.20;;;;;;4838969;29;20049;-83
2022/08/02 06:18:30;;;;;;;5.95;3.40;;;23.20;86.00;;;;;;4834566;29;20053;-84
2022/08/02 06:21:01;;;;;;;4.45;3.20;;;23.20;82.90;;;;;;4835718;29;20045;-82
2022/08/02 06:23:48;;;;;;;4.18;3.05;;;23.30;83.20;;;;;;4843525;29;20045;-85
2022/08/02 06:26:27;;;;;;;6.80;2.85;;;23.50;82.00;;;;;;4840554;29;20075;-82
2022/08/02 06:28:56;;;;;;;3.20;2.67;;;23.70;82.20;;;;;;4825986;29;20152;-83
2022/08/02 06:31:24;;;;;;;7.07;3.30;;;23.70;81.20;;;;;;4842095;29;20046;-83
2022/08/02 06:33:51;;;;;;;4.68;3.13;;;23.80;79.50;;;;;;4821637;29;20114;-83
2022/08/02 06:36:38;;;;;;;4.95;2.30;;;23.90;78.90;;;;;;4825072;29;20087;-84
2022/08/02 06:39:22;;;;;;;3.30;2.38;;;24.00;79.00;;;;;;4855632;29;20595;-84
2022/08/02 06:41:54;;;;;;;8.35;2.67;;;24.20;79.30;;;;;;4834165;29;20049;-83
2022/08/02 06:44:37;;;;;;;5.25;2.50;;;24.30;77.70;;;;;;4838437;29;20077;-83
2022/08/02 06:47:18;;;;;;;5.28;2.53;;;24.30;76.50;;;;;;4836237;29;20054;-82
2022/08/02 06:49:46;;;;;;;2.30;2.10;;;24.40;76.30;;;;;;4831652;29;20053;-83
2022/08/02 06:52:30;;;;;;;4.05;2.40;;;24.60;76.30;;;;;;4858189;29;20109;-85
2022/08/02 06:55:00;;;;;;;6.00;2.50;;;24.80;75.00;;;;;;4814649;29;20058;-84
2022/08/02 06:57:28;;;;;;;3.75;2.47;;;24.90;74.10;;;;;;4842834;29;20419;-84
2022/08/02 06:59:57;;;;;;;2.88;2.50;;;24.70;74.30;;;;;;4825723;29;20060;-83
2022/08/02 07:02:24;;;;;;;2.75;2.33;;;24.90;74.40;;;;;;4838915;29;20424;-84
2022/08/02 07:04:53;;;;;;;6.03;2.40;;;25.10;73.50;;;;;;4866036;29;20079;-83
2022/08/02 07:07:21;;;;;;;5.65;2.50;;;25.30;72.70;;;;;;4853560;29;20061;-82
2022/08/02 07:09:50;;;;;;;5.50;2.45;;;25.40;74.00;;;;;;4845691;29;20420;-82
2022/08/02 07:12:30;;;;;;;4.03;1.92;;;25.40;72.00;;;;;;4845810;29;20053;-81
2022/08/02 07:14:59;;;;;;;3.72;2.30;;;25.60;71.00;;;;;;4861411;29;20504;-83
2022/08/02 07:17:27;;;;;;;4.15;2.13;;;25.40;68.40;;;;;;4850357;29;20053;-82
2022/08/02 07:19:55;;;;;;;3.92;1.63;;;25.60;69.80;;;;;;4860389;29;20060;-81
2022/08/02 07:22:25;;;;;;;4.07;1.63;;;25.70;69.90;;;;;;4856636;29;20046;-83
2022/08/02 07:24:58;;;;;;;4.00;1.88;;;25.80;68.00;;;;;;4842501;29;20105;-83
2022/08/02 07:27:27;;;;;;;5.13;1.58;;;25.80;68.90;;;;;;4861200;29;20441;-83
2022/08/02 07:29:55;;;;;;;4.55;1.50;;;26.00;69.90;;;;;;4855740;29;20054;-81
2022/08/02 07:32:28;;;;;;;3.13;1.27;;;26.10;68.10;;;;;;4849057;29;20051;-84
2022/08/02 07:34:56;;;;;;;4.20;1.40;;;26.20;65.30;;;;;;4860484;29;20298;-81
2022/08/02 07:37:30;;;;;;;2.05;1.25;;;26.20;65.90;;;;;;4845157;29;20085;-83
2022/08/02 07:40:17;;;;;;;2.80;1.42;;;26.20;65.30;;;;;;4861047;29;20067;-81
2022/08/02 07:42:51;;;;;;;3.65;1.50;;;26.40;65.20;;;;;;4860147;29;20041;-82
2022/08/02 07:45:26;;;;;;;2.25;1.13;;;26.50;64.60;;;;;;4837776;29;20056;-81
2022/08/02 07:47:55;;;;;;;2.83;1.20;;;26.60;64.20;;;;;;4843614;29;20069;-81
2022/08/02 07:50:23;;;;;;;2.72;1.05;;;26.80;65.10;;;;;;4850712;29;20117;-81
2022/08/02 07:52:50;;;;;;;2.92;1.38;;;26.80;64.50;;;;;;4850865;29;20507;-80
2022/08/02 07:55:24;;;;;;;1.80;1.08;;;26.80;64.10;;;;;;4844632;29;20060;-81
2022/08/02 07:58:10;;;;;;;2.10;1.27;;;26.80;63.10;;;;;;4875534;29;20063;-81
2022/08/02 08:00:42;;;;;;;2.85;1.35;;;26.90;63.50;;;;;;4875728;29;20128;-82
2022/08/02 08:03:10;;;;;;;1.92;1.02;;;26.90;62.30;;;;;;4852629;29;20056;-81
2022/08/02 08:05:37;;;;;;;1.17;0.95;;;27.00;62.90;;;;;;4857054;29;20061;-82
2022/08/02 08:08:04;;;;;;;2.95;1.15;;;26.90;62.30;;;;;;4873156;29;20528;-82
2022/08/02 08:10:32;;;;;;;2.45;1.25;;;27.10;63.40;;;;;;4850967;29;20056;-81
2022/08/02 08:12:59;;;;;;;2.53;0.93;;;27.20;61.30;;;;;;4838244;29;20045;-80
2022/08/02 08:15:27;;;;;;;1.65;0.90;;;27.20;61.80;;;;;;4860011;29;20060;-81
2022/08/02 08:17:54;;;;;;;2.00;1.13;;;27.30;62.40;;;;;;4841585;29;20512;-81
2022/08/02 08:20:21;;;;;;;2.25;1.58;;;27.30;61.50;;;;;;4838708;29;20045;-80
2022/08/02 08:22:49;;;;;;;3.25;1.40;;;27.40;62.50;;;;;;4833673;29;20053;-80
2022/08/02 08:25:17;;;;;;;2.15;1.10;;;27.50;60.10;;;;;;4859417;29;20058;-80
2022/08/02 08:27:50;;;;;;;1.77;0.90;;;27.60;61.20;;;;;;4861478;29;20041;-79
2022/08/02 08:30:20;;;;;;;3.55;1.30;;;27.60;59.70;;;;;;4873225;29;20054;-80
2022/08/02 08:32:48;;;;;;;4.75;1.65;;;27.70;59.80;;;;;;4872441;29;20062;-81
2022/08/02 08:35:15;;;;;;;1.33;1.00;;;27.70;58.50;;;;;;4855135;29;20117;-81
2022/08/02 08:37:43;;;;;;;4.78;1.55;;;27.50;58.70;;;;;;4857714;29;20053;-80
2022/08/02 08:40:11;;;;;;;1.58;0.90;;;27.70;61.30;;;;;;4855764;29;20378;-80
2022/08/02 08:42:38;;;;;;;2.03;1.02;;;27.80;58.40;;;;;;4845023;29;20041;-81
2022/08/02 08:45:07;;;;;;;2.10;1.02;;;27.90;58.90;;;;;;4832737;29;20496;-80
2022/08/02 08:47:39;;;;;;;3.38;1.40;;;27.90;58.30;;;;;;4859989;29;20412;-80
2022/08/02 08:50:18;;;;;;;1.98;1.10;;;27.90;58.10;;;;;;4859252;29;20093;-81
2022/08/02 08:53:08;;;;;;;1.95;1.10;;;27.80;56.90;;;;;;4863502;29;20137;-81
2022/08/02 08:55:40;;;;;;;2.60;1.50;;;27.80;56.80;;;;;;4859457;29;20116;-82
2022/08/02 08:58:07;;;;;;;3.95;1.15;;;27.50;56.30;;;;;;4848882;29;20136;-82
2022/08/02 09:00:35;;;;;;;2.60;1.13;;;27.50;57.00;;;;;;4866116;29;20045;-81
2022/08/02 09:03:07;;;;;;;2.67;1.30;;;27.70;58.00;;;;;;4859755;29;20049;-81
2022/08/02 09:05:37;;;;;;;2.35;1.17;;;27.90;59.20;;;;;;4863290;29;20491;-82
2022/08/02 09:08:05;;;;;;;3.75;1.35;;;28.00;57.10;;;;;;4852330;29;20052;-81
2022/08/02 09:10:43;;;;;;;1.42;1.15;;;28.00;58.70;;;;;;4841034;29;20049;-82
2022/08/02 09:13:15;;;;;;;3.35;0.93;;;27.80;56.80;;;;;;4860570;29;20449;-81
2022/08/02 09:16:04;;;;;;;2.70;1.50;;;27.90;57.00;;;;;;4876149;29;20250;-81
2022/08/02 09:18:43;;;;;;;1.35;1.20;;;28.10;59.50;;;;;;4848899;29;20144;-82
2022/08/02 09:21:13;;;;;;;1.88;1.13;;;28.30;58.10;;;;;;4861952;29;20133;-81
2022/08/02 09:23:42;;;;;;;1.23;1.00;;;28.10;57.40;;;;;;4861482;29;20140;-81
2022/08/02 09:26:12;;;;;;;3.03;1.60;;;28.00;59.40;;;;;;4852637;29;20055;-81
2022/08/02 09:28:42;;;;;;;1.80;1.30;;;27.90;56.00;;;;;;4862900;29;20063;-81
2022/08/02 09:31:17;;;;;;;2.58;1.25;;;28.00;57.20;;;;;;4862225;29;20053;-81
2022/08/02 09:33:50;;;;;;;1.77;1.45;;;28.00;56.40;;;;;;4856295;29;20073;-81
2022/08/02 09:36:18;;;;;;;3.40;1.30;;;28.10;58.50;;;;;;4858795;29;20049;-83
2022/08/02 09:38:54;;;;;;;1.10;0.98;;;28.00;56.00;;;;;;4847278;29;20085;-80
2022/08/02 09:41:24;;;;;;;3.65;1.35;;;27.90;57.20;;;;;;4858993;29;20060;-81
2022/08/02 09:43:53;;;;;;;1.88;1.00;;;28.20;59.60;;;;;;4847166;29;20045;-80
2022/08/02 09:46:38;;;;;;;3.03;1.25;;;28.40;57.40;;;;;;4849348;29;20059;-83
2022/08/02 09:49:08;;;;;;;1.50;1.10;;;28.20;56.00;;;;;;4855445;29;20044;-82
2022/08/02 09:51:55;;;;;;;2.80;1.05;;;28.20;56.00;;;;;;4846906;29;20048;-83
2022/08/02 09:54:27;;;;;;;2.03;1.02;;;28.30;56.30;;;;;;4853871;29;20052;-80
2022/08/02 09:56:58;;;;;;;2.15;1.20;;;28.20;55.90;;;;;;4862189;29;20060;-82
2022/08/02 09:59:27;;;;;;;2.17;1.05;;;28.20;56.60;;;;;;4859036;29;20049;-82
2022/08/02 10:01:56;;;;;;;2.30;1.15;;;28.40;56.00;;;;;;4856773;29;20045;-81
2022/08/02 10:04:31;;;;;;;2.42;1.50;;;28.50;56.80;;;;;;4878030;29;20105;-82
2022/08/02 10:07:18;;;;;;;3.83;1.70;;;28.60;56.10;;;;;;4854595;29;20053;-82
2022/08/02 10:09:49;;;;;;;3.35;1.33;;;28.60;55.70;;;;;;4861323;29;20058;-80
2022/08/02 10:12:19;;;;;;;4.78;1.25;;;28.60;55.90;;;;;;4852184;29;20136;-82
2022/08/02 10:14:50;;;;;;;2.05;0.93;;;28.60;55.40;;;;;;4854674;29;20504;-82
2022/08/02 10:17:19;;;;;;;1.40;1.20;;;28.60;55.40;;;;;;4858796;29;20052;-80
2022/08/02 10:19:47;;;;;;;3.13;1.33;;;28.40;55.20;;;;;;4855451;29;20037;-79
2022/08/02 10:22:29;;;;;;;2.42;1.27;;;28.50;57.00;;;;;;4858072;29;20147;-82
2022/08/02 10:24:57;;;;;;;4.43;1.40;;;28.60;56.00;;;;;;4857216;29;20148;-80
2022/08/02 10:27:28;;;;;;;2.15;1.10;;;28.70;58.10;;;;;;4847453;29;20057;-79
2022/08/02 10:30:15;;;;;;;2.67;1.60;;;28.80;56.60;;;;;;4850017;29;20057;-83
2022/08/02 10:32:44;;;;;;;3.25;1.52;;;28.90;56.20;;;;;;4861400;29;20049;-80
2022/08/02 10:35:20;;;;;;;2.50;1.60;;;28.90;56.00;;;;;;4847012;29;20559;-80
2022/08/02 10:37:59;;;;;;;3.40;1.80;;;28.80;56.30;;;;;;4874834;29;20072;-84
2022/08/02 10:40:50;;;;;;;1.98;1.65;;;28.80;55.80;;;;;;4861450;29;20108;-81
2022/08/02 10:43:36;;;;;;;5.85;2.45;;;28.80;55.30;;;;;;4855558;29;20074;-81
2022/08/02 10:46:31;;;;;;;2.33;1.40;;;28.80;55.60;;;;;;4860596;29;20132;-81
2022/08/02 10:49:07;;;;;;;2.28;1.30;;;28.50;55.20;;;;;;4861671;29;20049;-80
2022/08/02 10:52:00;;;;;;;2.30;2.03;;;28.50;57.90;;;;;;4861437;29;20048;-80
2022/08/02 10:54:35;;;;;;;2.10;1.30;;;28.70;56.30;;;;;;4861739;29;20057;-79
2022/08/02 10:57:18;;;;;;;2.92;1.45;;;28.90;56.70;;;;;;4877453;29;20367;-85
2022/08/02 10:59:45;;;;;;;;;;;28.80;54.60;;;;;;4856577;29;20046;-83
2022/08/02 11:02:31;;;;;;;1.65;1.00;;;28.90;54.80;;;;;;4876979;29;19935;-80
2022/08/02 11:05:07;;;;;;;1.75;0.70;;;29.00;54.30;;;;;;4846378;29;20053;-82
2022/08/02 11:07:41;;;;;;;1.33;0.80;;;29.00;53.60;;;;;;4850941;29;20072;-82
2022/08/02 11:10:25;;;;;;;1.40;1.25;;;29.00;54.60;;;;;;4858061;29;20267;-80
2022/08/02 11:13:11;;;;;;;2.75;1.02;;;29.00;55.30;;;;;;4850212;29;20049;-80
2022/08/02 11:16:03;;;;;;;1.67;1.40;;;29.00;54.50;;;;;;4875287;29;20386;-80
2022/08/02 11:18:49;;;;;;;2.30;1.23;;;29.00;54.90;;;;;;4841515;29;20049;-81
2022/08/02 11:21:21;;;;;;;2.55;1.30;;;29.20;55.80;;;;;;4842373;29;20045;-81
2022/08/02 11:23:49;;;;;;;1.38;1.10;;;29.30;53.40;;;;;;4871984;29;20069;-82
2022/08/02 11:26:29;;;;;;;3.75;1.00;;;29.30;53.50;;;;;;4851572;29;20641;-82
2022/08/02 11:28:58;;;;;;;3.25;1.02;;;29.30;54.00;;;;;;4847213;29;20148;-81
2022/08/02 11:31:36;;;;;;;1.70;0.88;;;29.40;52.90;;;;;;4837856;29;20049;-81
2022/08/02 11:34:05;;;;;;;1.80;0.90;;;29.30;52.50;;;;;;4859122;29;20449;-81
2022/08/02 11:36:50;;;;;;;2.38;0.80;;;29.10;53.30;;;;;;4856959;29;20052;-79
2022/08/02 11:39:19;;;;;;;;;;;28.80;53.60;;;;;;4874823;29;20061;-82
2022/08/02 11:41:55;;;;;;;1.73;1.00;;;28.70;53.60;;;;;;4851447;29;20019;-82
2022/08/02 11:44:27;;;;;;;1.92;1.00;;;28.50;54.00;;;;;;4841186;29;20052;-82
2022/08/02 11:46:59;;;;;;;1.25;0.82;;;28.60;54.20;;;;;;4845552;29;20053;-80
2022/08/02 11:49:27;;;;;;;1.67;1.30;;;28.60;55.60;;;;;;4860649;29;20052;-80
2022/08/02 11:52:00;;;;;;;2.80;0.90;;;28.50;55.40;;;;;;4843235;29;20074;-81
2022/08/02 11:54:40;;;;;;;1.20;1.10;;;28.70;54.90;;;;;;4859295;29;20144;-81
2022/08/02 11:57:17;;;;;;;2.45;1.42;;;29.00;55.00;;;;;;4844431;29;20143;-81
2022/08/02 11:59:52;;;;;;;3.83;1.33;;;29.30;54.50;;;;;;4858896;29;20049;-82
2022/08/02 12:02:23;;;;;;;2.35;0.90;;;29.60;53.90;;;;;;4850211;29;20156;-81
2022/08/02 12:04:59;;;;;;;1.70;1.38;;;29.60;53.20;;;;;;4844723;29;20501;-81
2022/08/02 12:07:38;;;;;;;2.42;1.20;;;29.40;54.50;;;;;;4877933;29;20571;-82
2022/08/02 12:10:22;;;;;;;3.72;1.20;;;29.30;54.10;;;;;;4839150;29;20049;-83
2022/08/02 12:12:58;;;;;;;2.25;1.00;;;29.00;53.70;;;;;;4853202;29;20492;-81
2022/08/02 12:15:36;;;;;;;0.95;0.85;;;28.90;53.90;;;;;;4855272;29;20048;-81
2022/08/02 12:21:03;;;;;;;1.70;1.38;;;28.70;54.40;;;;;;4879328;29;20132;-83
2022/08/02 12:23:30;;;;;;;1.80;1.02;;;28.80;53.20;;;;;;4846034;29;20089;-84
2022/08/02 12:26:06;;;;;;;1.92;0.93;;;29.00;53.80;;;;;;4848582;29;20461;-87
2022/08/02 12:28:37;;;;;;;1.50;0.70;;;29.10;53.40;;;;;;4877420;29;20085;-82
2022/08/02 12:31:12;;;;;;;5.40;1.42;;;29.20;53.00;;;;;;4858680;29;20057;-80
2022/08/02 12:33:50;;;;;;;1.40;1.00;;;29.30;53.30;;;;;;4857631;29;20496;-81
2022/08/02 12:36:19;;;;;;;1.65;1.30;;;29.40;53.40;;;;;;4848329;29;20072;-82
2022/08/02 12:38:51;;;;;;;2.13;1.10;;;29.50;53.60;;;;;;4844200;29;20493;-83
2022/08/02 12:41:19;;;;;;;1.83;1.00;;;29.60;53.00;;;;;;4866278;29;20048;-83
2022/08/02 12:43:59;;;;;;;4.00;1.00;;;29.50;52.60;;;;;;4859617;29;20057;-82
2022/08/02 12:46:26;;;;;;;3.78;1.20;;;29.30;52.50;;;;;;4844090;29;20049;-82
2022/08/02 12:48:54;;;;;;;1.27;1.17;;;29.10;53.10;;;;;;4861912;29;20151;-80
2022/08/02 12:51:41;;;;;;;2.65;1.17;;;29.10;53.10;;;;;;4852471;29;20093;-83
2022/08/02 12:54:27;;;;;;;3.28;0.73;;;28.90;52.70;;;;;;4866449;29;20056;-83
2022/08/02 12:57:09;;;;;;;1.50;0.77;;;28.80;53.50;;;;;;4864113;29;20056;-81
2022/08/02 12:59:38;;;;;;;3.35;1.00;;;28.70;53.60;;;;;;4852847;29;20148;-83
2022/08/02 13:02:09;;;;;;;2.22;1.10;;;28.60;53.90;;;;;;4864082;29;20064;-80
2022/08/02 13:04:38;;;;;;;1.70;0.88;;;28.90;53.30;;;;;;4850487;29;20073;-82
2022/08/02 13:07:06;;;;;;;1.45;0.90;;;29.20;53.50;;;;;;4846974;29;20052;-82
2022/08/02 13:09:43;;;;;;;3.75;0.93;;;29.20;54.00;;;;;;4839806;29;20049;-83
2022/08/02 13:12:10;;;;;;;2.08;0.80;;;29.30;53.80;;;;;;4876718;29;20053;-82
2022/08/02 13:14:39;;;;;;;1.70;0.65;;;29.40;54.00;;;;;;4861900;29;20045;-83
2022/08/02 13:17:10;;;;;;;2.40;0.93;;;29.50;52.00;;;;;;4838716;29;20144;-82
2022/08/02 13:19:37;;;;;;;0.98;0.50;;;29.60;53.00;;;;;;4863568;29;20049;-81
2022/08/02 13:22:05;;;;;;;2.35;1.05;;;29.60;52.50;;;;;;4865364;29;20191;-82